createdAt,value
2022-12-31T00:02:26.023Z,100149.72
2022-12-31T00:04:54.801Z,100144.72
2022-12-31T00:07:21.880Z,100153.97
2022-12-31T00:09:50.062Z,100148.66
2022-12-31T00:12:16.993Z,100155.25
2022-12-31T00:14:44.285Z,100160.94
2022-12-31T00:17:11.171Z,100158.03
2022-12-31T00:19:38.411Z,100152.81
2022-12-31T00:22:05.275Z,100161.81
2022-12-31T00:24:33.127Z,100163.34
2022-12-31T00:27:01.342Z,100159.25
2022-12-31T00:29:28.222Z,100150.81
2022-12-31T00:31:55.198Z,100159.81
2022-12-31T00:34:22.297Z,100154.25
2022-12-31T00:36:49.349Z,100157.06
2022-12-31T00:39:16.322Z,100155.09
2022-12-31T00:41:44.067Z,100154.41
2022-12-31T00:44:13.406Z,100168.53
2022-12-31T00:49:06.823Z,100178.25
2022-12-31T00:51:33.764Z,100172.13
2022-12-31T00:54:00.937Z,100172.34
2022-12-31T00:56:30.833Z,100177.44
2022-12-31T00:59:00.020Z,100177.78
2022-12-31T01:01:31.307Z,100183.56
2022-12-31T01:04:03.671Z,100178.25
2022-12-31T01:06:31.243Z,100174.09
2022-12-31T01:08:58.343Z,100170.38
2022-12-31T01:11:29.279Z,100170.03
2022-12-31T01:13:59.183Z,100170.03
2022-12-31T01:16:32.074Z,100172.47
2022-12-31T01:19:00.729Z,100169.94
2022-12-31T01:21:28.763Z,100169.34
2022-12-31T01:23:55.812Z,100175.94
2022-12-31T01:26:22.744Z,100171.44
2022-12-31T01:28:49.744Z,100177.78
2022-12-31T01:31:20.412Z,100173.84
2022-12-31T01:33:49.167Z,100180.22
2022-12-31T01:36:23.564Z,100179.84
2022-12-31T01:38:54.748Z,100178.25
2022-12-31T01:41:24.355Z,100175.47
2022-12-31T01:43:55.018Z,100171.41
2022-12-31T01:46:34.919Z,100165.28
2022-12-31T01:49:11.041Z,100172.69
2022-12-31T01:51:42.413Z,100165.28
2022-12-31T01:54:14.944Z,100174.63
2022-12-31T01:56:45.050Z,100176.84
2022-12-31T01:59:16.324Z,100187.91
2022-12-31T02:01:43.462Z,100183.41
2022-12-31T02:04:14.622Z,100181.44
2022-12-31T02:06:47.919Z,100173.81
2022-12-31T02:09:15.666Z,100177.28
2022-12-31T02:11:42.556Z,100177.72
2022-12-31T02:14:15.143Z,100170.44
2022-12-31T02:16:54.548Z,100174.34
2022-12-31T02:20:10.348Z,100183.22
2022-12-31T02:23:06.184Z,100174.19
2022-12-31T02:25:55.041Z,100176.28
2022-12-31T02:28:49.865Z,100179.06
2022-12-31T02:31:30.031Z,100176.13
2022-12-31T02:34:03.624Z,100183.88
2022-12-31T02:36:37.164Z,100186.81
2022-12-31T02:39:07.394Z,100183.66
2022-12-31T02:41:52.390Z,100193.28
2022-12-31T02:44:25.725Z,100185.44
2022-12-31T02:47:17.713Z,100179.19
2022-12-31T02:50:05.098Z,100174.47
2022-12-31T02:52:48.400Z,100175.03
2022-12-31T02:55:25.554Z,100172.84
2022-12-31T02:58:02.794Z,100181.84
2022-12-31T03:01:14.644Z,100173.41
2022-12-31T03:03:43.396Z,100184.50
2022-12-31T03:06:13.283Z,100187.28
2022-12-31T03:09:01.322Z,100183.59
2022-12-31T03:11:54.272Z,100180.25
2022-12-31T03:14:21.125Z,100186.59
2022-12-31T03:16:49.059Z,100177.22
2022-12-31T03:19:35.638Z,100173.28
2022-12-31T03:22:21.281Z,100178.47
2022-12-31T03:25:06.810Z,100177.78
2022-12-31T03:27:33.674Z,100179.78
2022-12-31T03:30:00.596Z,100172.97
2022-12-31T03:32:27.484Z,100172.97
2022-12-31T03:34:55.862Z,100175.75
2022-12-31T03:37:22.793Z,100181.63
2022-12-31T03:39:49.683Z,100181.19
2022-12-31T03:42:16.519Z,100194.47
2022-12-31T03:44:43.446Z,100197.72
2022-12-31T03:47:10.288Z,100194.59
2022-12-31T03:49:37.133Z,100192.53
2022-12-31T03:52:06.600Z,100193.66
2022-12-31T03:54:33.548Z,100199.56
2022-12-31T03:57:00.663Z,100195.06
2022-12-31T03:59:27.584Z,100196.44
2022-12-31T04:01:54.599Z,100198.53
2022-12-31T04:04:21.677Z,100196.91
2022-12-31T04:06:48.653Z,100201.41
2022-12-31T04:09:16.839Z,100195.06
2022-12-31T04:11:43.666Z,100188.34
2022-12-31T04:14:11.574Z,100184.28
2022-12-31T04:16:38.708Z,100186.97
2022-12-31T04:19:05.682Z,100189.63
2022-12-31T04:21:35.140Z,100183.25
2022-12-31T04:24:03.012Z,100179.41
2022-12-31T04:26:31.282Z,100183.00
2022-12-31T04:28:58.146Z,100180.22
2022-12-31T04:31:25.197Z,100161.25
2022-12-31T04:33:52.083Z,100145.53
2022-12-31T04:36:18.921Z,100138.59
2022-12-31T04:38:45.822Z,100143.56
2022-12-31T04:41:19.580Z,100142.41
2022-12-31T04:43:51.847Z,100152.31
2022-12-31T04:46:22.781Z,100160.19
2022-12-31T04:48:49.804Z,100152.44
2022-12-31T04:51:16.777Z,100142.91
2022-12-31T04:53:43.860Z,100150.09
2022-12-31T04:56:11.573Z,100161.50
2022-12-31T04:58:39.552Z,100164.72
2022-12-31T05:01:08.341Z,100169.88
2022-12-31T05:03:36.359Z,100182.75
2022-12-31T05:06:07.008Z,100192.59
2022-12-31T05:08:34.277Z,100192.94
2022-12-31T05:11:01.599Z,100195.38
2022-12-31T05:13:33.108Z,100201.50
2022-12-31T05:16:01.296Z,100205.22
2022-12-31T05:18:32.236Z,100211.94
2022-12-31T05:20:59.291Z,100224.41
2022-12-31T05:23:26.883Z,100215.38
2022-12-31T05:25:53.861Z,100217.00
2022-12-31T05:28:21.100Z,100214.94
2022-12-31T05:30:50.090Z,100232.28
2022-12-31T05:33:17.240Z,100232.97
2022-12-31T05:35:46.065Z,100224.81
2022-12-31T05:38:12.964Z,100226.91
2022-12-31T05:40:39.819Z,100234.28
2022-12-31T05:43:06.839Z,100231.50
2022-12-31T05:45:34.141Z,100222.34
2022-12-31T05:48:01.308Z,100226.63
2022-12-31T05:50:28.238Z,100223.13
2022-12-31T05:52:56.686Z,100226.63
2022-12-31T05:55:24.038Z,100224.19
2022-12-31T05:57:50.994Z,100207.44
2022-12-31T06:00:18.045Z,100216.00
2022-12-31T06:02:45.583Z,100229.06
2022-12-31T06:05:12.750Z,100233.56
2022-12-31T06:07:39.567Z,100207.56
2022-12-31T06:10:08.882Z,100208.97
2022-12-31T06:12:35.993Z,100202.03
2022-12-31T06:15:03.558Z,100201.09
2022-12-31T06:17:32.395Z,100226.03
2022-12-31T06:19:59.795Z,100237.25
2022-12-31T06:22:26.820Z,100237.63
2022-12-31T06:24:53.903Z,100224.53
2022-12-31T06:27:22.163Z,100240.94
2022-12-31T06:29:49.385Z,100234.44
2022-12-31T06:32:16.325Z,100238.00
2022-12-31T06:34:43.172Z,100234.97
2022-12-31T06:37:09.993Z,100221.69
2022-12-31T06:39:36.980Z,100208.66
2022-12-31T06:42:04.222Z,100201.25
2022-12-31T06:44:32.421Z,100219.41
2022-12-31T06:46:59.287Z,100232.25
2022-12-31T06:49:26.142Z,100245.06
2022-12-31T06:51:52.994Z,100251.56
2022-12-31T06:54:20.037Z,100251.69
2022-12-31T06:56:47.840Z,100257.63
2022-12-31T06:59:25.857Z,100249.84
2022-12-31T07:02:16.779Z,100247.44
2022-12-31T07:05:06.915Z,100233.09
2022-12-31T07:07:43.079Z,100233.47
2022-12-31T07:10:29.771Z,100221.44
2022-12-31T07:13:36.128Z,100234.72
2022-12-31T07:16:25.336Z,100236.81
2022-12-31T07:19:07.251Z,100251.91
2022-12-31T07:21:38.208Z,100264.97
2022-12-31T07:24:07.815Z,100254.34
2022-12-31T07:27:03.499Z,100256.88
2022-12-31T07:29:51.361Z,100253.19
2022-12-31T07:32:33.150Z,100252.38
2022-12-31T07:35:14.821Z,100265.44
2022-12-31T07:37:51.551Z,100260.13
2022-12-31T07:40:29.912Z,100249.72
2022-12-31T07:43:12.924Z,100241.38
2022-12-31T07:45:49.960Z,100236.06
2022-12-31T07:48:24.966Z,100257.09
2022-12-31T07:50:56.618Z,100266.69
2022-12-31T07:53:25.516Z,100271.19
2022-12-31T07:55:57.146Z,100258.94
2022-12-31T07:58:40.680Z,100262.63
2022-12-31T08:01:13.072Z,100244.63
2022-12-31T08:04:00.041Z,100259.41
2022-12-31T08:06:41.337Z,100255.25
2022-12-31T08:09:26.255Z,100249.72
2022-12-31T08:11:57.693Z,100249.03
2022-12-31T08:14:26.545Z,100243.72
2022-12-31T08:16:54.636Z,100238.06
2022-12-31T08:19:26.729Z,100252.38
2022-12-31T08:22:22.507Z,100249.34
2022-12-31T08:25:06.493Z,100245.06
2022-12-31T08:27:45.686Z,100251.19
2022-12-31T08:30:16.188Z,100238.28
2022-12-31T08:32:52.252Z,100248.69
2022-12-31T08:35:35.450Z,100262.19
2022-12-31T08:38:17.360Z,100259.66
2022-12-31T08:40:59.297Z,100261.88
2022-12-31T08:43:48.053Z,100257.22
2022-12-31T08:46:25.914Z,100244.19
2022-12-31T08:48:53.341Z,100251.91
2022-12-31T08:51:23.730Z,100253.41
2022-12-31T08:53:53.433Z,100253.19
2022-12-31T08:56:29.845Z,100254.00
2022-12-31T08:59:24.815Z,100266.25
2022-12-31T09:02:27.034Z,100262.19
2022-12-31T09:05:09.415Z,100260.41
2022-12-31T09:07:40.620Z,100259.75
2022-12-31T09:10:20.693Z,100267.50
2022-12-31T09:13:04.671Z,100265.28
2022-12-31T09:15:41.952Z,100262.63
2022-12-31T09:18:11.531Z,100268.69
2022-12-31T09:20:44.443Z,100272.34
2022-12-31T09:23:13.118Z,100276.66
2022-12-31T09:25:53.918Z,100280.47
2022-12-31T09:28:39.281Z,100284.94
2022-12-31T09:31:15.000Z,100274.66
2022-12-31T09:33:52.508Z,100271.78
2022-12-31T09:36:30.311Z,100289.34
2022-12-31T09:39:10.790Z,100286.25
2022-12-31T09:42:17.498Z,100276.63
2022-12-31T09:45:28.405Z,100273.84
2022-12-31T09:48:48.541Z,100273.16
2022-12-31T09:51:32.174Z,100270.28
2022-12-31T09:54:45.154Z,100269.25
2022-12-31T09:57:36.433Z,100273.28
2022-12-31T10:00:12.094Z,100273.94
2022-12-31T10:02:59.606Z,100281.38
2022-12-31T10:05:56.841Z,100291.31
2022-12-31T10:08:48.050Z,100279.44
2022-12-31T10:11:26.091Z,100277.81
2022-12-31T10:14:18.069Z,100279.59
2022-12-31T10:17:18.524Z,100261.09
2022-12-31T10:20:25.570Z,100298.56
2022-12-31T10:23:20.818Z,100274.28
2022-12-31T10:26:23.130Z,100285.06
2022-12-31T10:28:58.103Z,100283.69
2022-12-31T10:31:40.430Z,100290.38
2022-12-31T10:34:16.997Z,100297.34
2022-12-31T10:36:57.112Z,100289.16
2022-12-31T10:39:58.918Z,100303.38
2022-12-31T10:43:18.770Z,100306.97
2022-12-31T10:46:32.125Z,100315.06
2022-12-31T10:49:39.719Z,100329.41
2022-12-31T10:53:05.534Z,100325.72
2022-12-31T10:56:05.633Z,100330.59
2022-12-31T10:59:39.848Z,100341.25
2022-12-31T11:02:55.849Z,100323.50
2022-12-31T11:06:03.558Z,100312.28
2022-12-31T11:09:08.658Z,100327.94
2022-12-31T11:11:47.845Z,100337.88
2022-12-31T11:14:47.696Z,100330.47
2022-12-31T11:17:40.477Z,100328.75
2022-12-31T11:20:28.380Z,100330.25
2022-12-31T11:23:17.265Z,100342.16
2022-12-31T11:25:57.606Z,100333.59
2022-12-31T11:28:59.537Z,100336.94
2022-12-31T11:31:57.942Z,100340.28
2022-12-31T11:35:02.936Z,100322.78
2022-12-31T11:37:41.922Z,100312.44
2022-12-31T11:40:36.699Z,100322.28
2022-12-31T11:43:21.069Z,100324.81
2022-12-31T11:46:08.375Z,100327.44
2022-12-31T11:48:44.173Z,100325.53
2022-12-31T11:51:46.859Z,100332.50
2022-12-31T11:54:50.040Z,100322.38
2022-12-31T11:57:27.312Z,100328.13
2022-12-31T11:59:59.210Z,100307.06
2022-12-31T12:02:32.076Z,100306.38
2022-12-31T12:05:10.602Z,100313.31
2022-12-31T12:07:38.449Z,100302.28
2022-12-31T12:10:23.369Z,100294.75
2022-12-31T12:12:53.816Z,100300.69
2022-12-31T12:15:27.333Z,100298.34
2022-12-31T12:17:58.182Z,100299.72
2022-12-31T12:20:31.863Z,100306.91
2022-12-31T12:23:01.778Z,100299.81
2022-12-31T12:25:39.828Z,100320.59
2022-12-31T12:28:24.101Z,100312.72
2022-12-31T12:30:59.270Z,100321.41
2022-12-31T12:33:29.619Z,100301.06
2022-12-31T12:36:08.563Z,100296.19
2022-12-31T12:38:36.611Z,100289.09
2022-12-31T12:41:07.641Z,100309.97
2022-12-31T12:43:37.888Z,100298.13
2022-12-31T12:46:17.714Z,100292.81
2022-12-31T12:48:49.461Z,100290.38
2022-12-31T12:51:38.440Z,100292.38
2022-12-31T12:54:25.807Z,100283.25
2022-12-31T12:57:04.533Z,100281.63
2022-12-31T13:00:09.181Z,100303.28
2022-12-31T13:03:21.959Z,100286.72
2022-12-31T13:06:09.974Z,100306.75
2022-12-31T13:09:01.102Z,100313.03
2022-12-31T13:11:43.705Z,100312.44
2022-12-31T13:14:27.630Z,100303.38
2022-12-31T13:17:05.721Z,100314.03
2022-12-31T13:19:44.448Z,100294.25
2022-12-31T13:22:22.854Z,100301.06
2022-12-31T13:25:00.294Z,100305.91
2022-12-31T13:27:34.046Z,100304.97
2022-12-31T13:30:07.230Z,100293.34
2022-12-31T13:32:40.649Z,100291.72
2022-12-31T13:35:24.528Z,100293.34
2022-12-31T13:38:04.777Z,100306.75
2022-12-31T13:40:45.027Z,100303.53
2022-12-31T13:43:22.048Z,100302.25
2022-12-31T13:46:03.339Z,100299.81
2022-12-31T13:48:39.188Z,100290.53
2022-12-31T13:51:14.973Z,100289.25
2022-12-31T13:53:52.944Z,100291.34
2022-12-31T13:56:26.708Z,100313.72
2022-12-31T13:59:04.646Z,100312.59
2022-12-31T14:01:38.731Z,100315.47
2022-12-31T14:04:15.192Z,100316.44
2022-12-31T14:06:50.127Z,100314.03
2022-12-31T14:09:23.600Z,100309.63
2022-12-31T14:12:18.222Z,100347.09
2022-12-31T14:14:58.940Z,100330.28
2022-12-31T14:17:36.380Z,100322.53
2022-12-31T14:20:18.881Z,100343.03
2022-12-31T14:22:57.762Z,100352.41
2022-12-31T14:25:33.989Z,100343.16
2022-12-31T14:28:05.107Z,100344.28
2022-12-31T14:30:40.749Z,100350.19
2022-12-31T14:33:45.027Z,100350.06
2022-12-31T14:36:32.197Z,100345.31
2022-12-31T14:39:34.508Z,100342.44
2022-12-31T14:42:18.392Z,100347.06
2022-12-31T14:45:04.319Z,100344.50
2022-12-31T14:47:48.768Z,100355.72
2022-12-31T14:50:22.058Z,100358.03
2022-12-31T14:52:53.792Z,100355.34
2022-12-31T14:55:28.591Z,100361.34
2022-12-31T15:00:54.802Z,100367.38
2022-12-31T15:03:36.995Z,100379.63
2022-12-31T15:06:36.971Z,100375.38
2022-12-31T15:09:23.065Z,100371.97
2022-12-31T15:12:18.008Z,100382.41
2022-12-31T15:15:06.341Z,100394.94
2022-12-31T15:17:51.204Z,100388.47
2022-12-31T15:20:44.231Z,100388.31
2022-12-31T15:23:22.067Z,100398.03
2022-12-31T15:25:58.134Z,100383.63
2022-12-31T15:28:34.659Z,100382.03
2022-12-31T15:31:11.711Z,100387.84
2022-12-31T15:33:55.456Z,100372.09
2022-12-31T15:36:26.085Z,100384.81
2022-12-31T15:39:07.509Z,100377.63
2022-12-31T15:42:10.300Z,100388.88
2022-12-31T15:44:45.385Z,100393.16
2022-12-31T15:47:22.120Z,100395.16
2022-12-31T15:49:50.632Z,100401.88
2022-12-31T15:52:25.584Z,100417.44
2022-12-31T15:54:57.160Z,100421.75
2022-12-31T15:57:33.179Z,100418.38
2022-12-31T16:00:04.463Z,100428.00
2022-12-31T16:02:31.631Z,100426.84
2022-12-31T16:04:58.703Z,100437.06
2022-12-31T16:07:28.523Z,100422.56
2022-12-31T16:10:00.057Z,100420.00
2022-12-31T16:12:39.412Z,100414.53
2022-12-31T16:15:22.268Z,100419.38
2022-12-31T16:18:03.484Z,100421.94
2022-12-31T16:20:34.141Z,100426.81
2022-12-31T16:23:03.441Z,100418.88
2022-12-31T16:25:33.529Z,100423.75
2022-12-31T16:28:03.800Z,100436.63
2022-12-31T16:30:35.628Z,100415.75
2022-12-31T16:33:07.034Z,100418.41
2022-12-31T16:35:36.520Z,100415.84
2022-12-31T16:38:13.921Z,100417.94
2022-12-31T16:40:43.355Z,100417.47
2022-12-31T16:43:26.257Z,100420.06
2022-12-31T16:45:57.528Z,100418.78
2022-12-31T16:48:26.348Z,100414.81
2022-12-31T16:50:56.598Z,100420.16
2022-12-31T16:53:27.503Z,100410.50
2022-12-31T16:56:00.021Z,100406.91
2022-12-31T16:58:32.460Z,100420.31
2022-12-31T17:01:13.610Z,100411.75
2022-12-31T17:03:45.888Z,100428.31
2022-12-31T17:06:16.561Z,100438.69
2022-12-31T17:08:47.538Z,100432.53
2022-12-31T17:11:28.501Z,100444.03
2022-12-31T17:14:07.141Z,100440.88
2022-12-31T17:16:36.476Z,100426.03
2022-12-31T17:19:04.359Z,100433.88
2022-12-31T17:21:32.593Z,100419.00
2022-12-31T17:24:04.264Z,100417.06
2022-12-31T17:26:34.683Z,100419.00
2022-12-31T17:29:05.716Z,100417.72
2022-12-31T17:31:36.730Z,100416.47
2022-12-31T17:34:29.172Z,100427.41
2022-12-31T17:37:14.461Z,100422.25
2022-12-31T17:39:50.622Z,100423.56
2022-12-31T17:42:30.018Z,100424.22
2022-12-31T17:45:02.302Z,100429.28
2022-12-31T17:47:36.271Z,100421.28
2022-12-31T17:50:18.203Z,100420.38
2022-12-31T17:52:45.198Z,100405.59
2022-12-31T17:55:12.648Z,100404.69
2022-12-31T17:57:50.507Z,100403.72
2022-12-31T18:00:22.268Z,100393.06
2022-12-31T18:02:49.330Z,100395.50
2022-12-31T18:05:19.105Z,100401.63
2022-12-31T18:07:46.239Z,100415.09
2022-12-31T18:10:15.658Z,100421.09
2022-12-31T18:12:44.040Z,100415.75
2022-12-31T18:15:16.010Z,100412.63
2022-12-31T18:17:45.007Z,100408.72
2022-12-31T18:20:12.575Z,100394.22
2022-12-31T18:22:42.030Z,100397.56
2022-12-31T18:25:12.591Z,100384.38
2022-12-31T18:27:41.920Z,100391.94
2022-12-31T18:30:10.852Z,100379.53
2022-12-31T18:32:40.795Z,100390.13
2022-12-31T18:35:33.251Z,100396.91
2022-12-31T18:38:03.466Z,100406.53
2022-12-31T18:40:30.481Z,100392.25
2022-12-31T18:43:02.712Z,100390.84
2022-12-31T18:45:31.701Z,100383.91
2022-12-31T18:47:58.574Z,100386.91
2022-12-31T18:50:26.781Z,100381.09
2022-12-31T18:52:53.626Z,100378.50
2022-12-31T18:55:33.473Z,100385.94
2022-12-31T18:58:00.345Z,100407.69
2022-12-31T19:00:27.240Z,100400.19
2022-12-31T19:02:54.110Z,100409.19
2022-12-31T19:05:24.237Z,100405.09
2022-12-31T19:07:52.464Z,100401.47
2022-12-31T19:10:20.216Z,100394.03
2022-12-31T19:12:48.171Z,100388.22
2022-12-31T19:15:25.003Z,100403.31
2022-12-31T19:17:52.030Z,100401.56
2022-12-31T19:20:19.111Z,100399.94
2022-12-31T19:22:46.004Z,100398.38
2022-12-31T19:25:23.817Z,100402.97
2022-12-31T19:27:51.564Z,100382.94
2022-12-31T19:30:23.253Z,100380.66
2022-12-31T19:32:51.157Z,100382.28
2022-12-31T19:35:19.894Z,100365.22
2022-12-31T19:37:49.800Z,100377.09
2022-12-31T19:40:22.042Z,100383.63
2022-12-31T19:42:50.699Z,100369.34
2022-12-31T19:45:22.571Z,100371.59
2022-12-31T19:47:50.712Z,100377.63
2022-12-31T19:50:20.915Z,100395.72
2022-12-31T19:52:51.128Z,100403.16
2022-12-31T19:55:22.782Z,100398.72
2022-12-31T19:57:49.798Z,100394.75
2022-12-31T20:00:19.639Z,100409.25
2022-12-31T20:02:48.897Z,100414.66
2022-12-31T20:05:19.234Z,100415.50
2022-12-31T20:07:46.539Z,100403.34
2022-12-31T20:10:13.867Z,100410.97
2022-12-31T20:12:44.537Z,100412.09
2022-12-31T20:15:11.914Z,100422.34
2022-12-31T20:17:38.993Z,100424.88
2022-12-31T20:20:07.597Z,100418.25
2022-12-31T20:22:34.577Z,100420.34
2022-12-31T20:25:01.640Z,100411.91
2022-12-31T20:27:28.681Z,100404.44
2022-12-31T20:29:57.023Z,100412.00
2022-12-31T20:32:23.843Z,100399.25
2022-12-31T20:34:50.754Z,100420.38
2022-12-31T20:37:17.628Z,100425.19
2022-12-31T20:39:44.469Z,100432.97
2022-12-31T20:42:11.374Z,100421.75
2022-12-31T20:44:38.287Z,100426.63
2022-12-31T20:47:06.502Z,100422.38
2022-12-31T20:50:08.977Z,100428.28
2022-12-31T20:52:20.182Z,100416.94
2022-12-31T20:54:47.040Z,100426.19
2022-12-31T20:57:13.973Z,100405.91
2022-12-31T20:59:40.981Z,100401.19
2022-12-31T21:02:21.737Z,100404.69
2022-12-31T21:04:50.799Z,100391.44
2022-12-31T21:07:18.002Z,100424.31
2022-12-31T21:09:44.890Z,100410.63
2022-12-31T21:12:30.932Z,100406.72
2022-12-31T21:14:58.203Z,100423.13
2022-12-31T21:17:26.351Z,100411.44
2022-12-31T21:19:53.221Z,100433.13
2022-12-31T21:22:20.414Z,100442.66
2022-12-31T21:24:47.233Z,100445.53
2022-12-31T21:27:14.354Z,100435.13
2022-12-31T21:30:01.873Z,100448.28
2022-12-31T21:32:29.481Z,100447.72
2022-12-31T21:35:39.567Z,100436.78
2022-12-31T21:37:59.198Z,100450.69
2022-12-31T21:40:27.897Z,100443.97
2022-12-31T21:42:54.804Z,100462.13
2022-12-31T21:45:21.799Z,100466.34
2022-12-31T21:48:08.579Z,100465.06
2022-12-31T21:50:35.575Z,100444.47
2022-12-31T21:53:02.477Z,100446.66
2022-12-31T21:55:47.888Z,100451.78
2022-12-31T21:58:31.763Z,100439.09
2022-12-31T22:01:18.716Z,100447.09
2022-12-31T22:03:47.022Z,100454.09
2022-12-31T22:06:20.469Z,100452.06
2022-12-31T22:08:51.469Z,100464.69
2022-12-31T22:11:21.226Z,100466.06
2022-12-31T22:13:49.001Z,100455.47
2022-12-31T22:16:17.050Z,100471.97
2022-12-31T22:18:46.158Z,100464.22
2022-12-31T22:21:19.224Z,100476.84
2022-12-31T22:23:49.007Z,100467.13
2022-12-31T22:26:18.129Z,100479.94
2022-12-31T22:28:46.310Z,100475.72
2022-12-31T22:31:16.126Z,100469.88
2022-12-31T22:33:43.664Z,100481.22
2022-12-31T22:36:15.306Z,100483.69
2022-12-31T22:38:43.104Z,100481.06
2022-12-31T22:41:12.905Z,100472.31
2022-12-31T22:43:44.151Z,100475.22
2022-12-31T22:46:14.791Z,100473.47
2022-12-31T22:48:42.577Z,100475.84
2022-12-31T22:51:12.989Z,100493.72
2022-12-31T22:53:41.231Z,100479.63
2022-12-31T22:56:10.118Z,100485.28
2022-12-31T22:58:37.842Z,100480.50
2022-12-31T23:01:06.185Z,100488.50
2022-12-31T23:03:33.842Z,100483.69
2022-12-31T23:06:01.009Z,100471.91
2022-12-31T23:08:29.258Z,100481.41
2022-12-31T23:11:03.608Z,100490.00
2022-12-31T23:13:55.503Z,100481.41
2022-12-31T23:16:42.515Z,100488.38
2022-12-31T23:19:28.671Z,100490.00
2022-12-31T23:22:14.260Z,100490.97
2022-12-31T23:24:42.779Z,100503.78
2022-12-31T23:27:11.212Z,100512.69
2022-12-31T23:29:46.145Z,100511.38
2022-12-31T23:32:15.135Z,100501.84
2022-12-31T23:34:44.251Z,100519.00
2022-12-31T23:37:11.356Z,100515.75
2022-12-31T23:39:39.925Z,100522.63
2022-12-31T23:42:08.361Z,100528.56
2022-12-31T23:44:35.312Z,100524.81
2022-12-31T23:47:02.236Z,100537.06
2022-12-31T23:49:29.229Z,100531.16
2022-12-31T23:51:56.211Z,100521.34
2022-12-31T23:54:23.107Z,100515.25
2022-12-31T23:56:49.994Z,100512.53
2022-12-31T23:59:18.411Z,100517.22
